Londonderry, Ohio
Current Conditions -  °F | °C
As of 8:14 AM on Thursday 23 Oct 2014 (Local Time) from KRZT Reporting Station
Haze Haze  
Wind Chill: 36°   Ceiling: Unl
Heat Index: 36°   Visibility: 5mi
Dew Point: 36°   Wind: 3mph
Humidity: 100%   Direction: 300°WNW
Pressure: 30.23"   Gusts: NA
Location:  39.27°N, 82.79°W
Report Text: KRZT 231214Z AUTO 30003KT 5SM BR CLR 02/02 A3023 RMK AO2
Loading
Personal Weather Stations






























Interactive Weather Map
Tropical Storm Tracking
New forecast layout! Learn more

10-Day Weather Forecast

Advertisements
Track Severe Weather on mobile